Time;durP1;ratioP1;P1;durP2;ratioP2;P2;SDS_P1;SDS_P2;PMS_P1;PMS_P2;Temp;Humidity;BMP_temperature;BMP_pressure;BME280_temperature;BME280_humidity;BME280_pressure;Samples;Min_cycle;Max_cycle;Signal;HPM_P1;HPM_P2
2024/03/10 00:01:56;;;;;;;0.10;0.10;;;;;;;10.08;66.94;99103.22;7370150;19;20089;-60
2024/03/10 00:04:22;;;;;;;0.10;0.10;;;;;;;10.07;66.58;99106.75;7366380;19;21008;-61
2024/03/10 00:06:47;;;;;;;0.20;0.20;;;;;;;10.06;66.53;99115.50;7365834;19;20019;-61
2024/03/10 00:09:13;;;;;;;0.10;0.10;;;;;;;9.93;66.82;99098.69;7366290;19;20018;-61
2024/03/10 00:11:38;;;;;;;0.13;0.13;;;;;;;9.92;66.78;99097.00;7371212;19;20006;-60
2024/03/10 00:14:05;;;;;;;0.10;0.10;;;;;;;10.04;66.68;99104.28;7365520;19;20422;-61
2024/03/10 00:16:31;;;;;;;0.10;0.10;;;;;;;10.04;66.37;99096.47;7369963;19;19999;-61
2024/03/10 00:18:58;;;;;;;0.10;0.10;;;;;;;10.03;66.38;99105.19;7362098;19;20002;-61
2024/03/10 00:21:24;;;;;;;0.10;0.10;;;;;;;10.02;66.65;99100.88;7364573;19;20025;-60
2024/03/10 00:23:50;;;;;;;0.10;0.10;;;;;;;9.99;66.55;99098.44;7365063;19;20010;-60
2024/03/10 00:26:15;;;;;;;0.05;0.05;;;;;;;9.92;66.44;99096.16;7368589;19;20003;-61
2024/03/10 00:28:40;;;;;;;0.00;0.00;;;;;;;10.00;66.43;99110.56;7359003;19;20074;-60
2024/03/10 00:31:09;;;;;;;0.10;0.10;;;;;;;10.00;66.30;99110.56;7350381;19;20006;-60
2024/03/10 00:33:35;;;;;;;0.10;0.10;;;;;;;9.98;66.46;99117.59;7362871;19;20055;-60
2024/03/10 00:36:00;;;;;;;0.10;0.10;;;;;;;9.99;66.22;99108.88;7368819;19;20006;-60
2024/03/10 00:38:27;;;;;;;0.10;0.10;;;;;;;9.98;66.58;99111.53;7367448;19;20025;-60
2024/03/10 00:40:53;;;;;;;0.10;0.10;;;;;;;9.92;66.11;99097.00;7363823;19;20009;-61
2024/03/10 00:43:18;;;;;;;0.05;0.05;;;;;;;9.97;66.36;99110.69;7363774;19;20010;-60
2024/03/10 00:45:44;;;;;;;0.10;0.10;;;;;;;9.97;66.13;99113.28;7366408;19;20010;-60
2024/03/10 00:48:09;;;;;;;0.10;0.10;;;;;;;9.88;66.53;99096.34;7365513;19;20456;-60
2024/03/10 00:50:34;;;;;;;0.10;0.10;;;;;;;9.87;66.53;99088.56;7369330;19;20549;-60
2024/03/10 00:53:00;;;;;;;0.10;0.10;;;;;;;9.95;66.33;99102.09;7364713;19;20026;-61
2024/03/10 00:55:26;;;;;;;0.10;0.10;;;;;;;9.96;66.15;99103.78;7362993;19;20700;-60
2024/03/10 00:57:52;;;;;;;0.10;0.10;;;;;;;9.95;66.47;99104.72;7364133;19;20114;-60
2024/03/10 01:00:17;;;;;;;0.10;0.10;;;;;;;9.94;66.59;99105.63;7366267;19;20078;-60
2024/03/10 01:02:47;;;;;;;0.10;0.10;;;;;;;9.96;66.55;99090.75;7366472;19;19999;-60
2024/03/10 01:05:13;;;;;;;0.10;0.10;;;;;;;9.91;66.34;99092.72;7365572;19;20493;-60
2024/03/10 01:07:39;;;;;;;0.10;0.10;;;;;;;9.94;66.51;99095.19;7352688;19;20026;-60
2024/03/10 01:10:05;;;;;;;0.10;0.10;;;;;;;9.94;66.14;99092.59;7364731;19;20363;-60
2024/03/10 01:12:30;;;;;;;0.10;0.10;;;;;;;9.93;66.50;99106.53;7364256;19;20641;-60
2024/03/10 01:14:55;;;;;;;0.10;0.10;;;;;;;9.92;66.19;99101.38;7368318;19;20023;-60
2024/03/10 01:17:22;;;;;;;0.10;0.10;;;;;;;9.92;66.74;99112.66;7362982;19;20010;-60
2024/03/10 01:19:47;;;;;;;0.10;0.10;;;;;;;9.93;66.11;99110.91;7366968;19;20010;-60
2024/03/10 01:22:17;;;;;;;0.10;0.10;;;;;;;9.89;66.11;99107.59;7360854;19;20376;-60
2024/03/10 01:24:43;;;;;;;0.10;0.10;;;;;;;9.91;66.64;99116.19;7360813;19;20502;-60
2024/03/10 01:27:08;;;;;;;0.10;0.10;;;;;;;9.92;66.52;99112.66;7364915;19;20007;-60
2024/03/10 01:29:34;;;;;;;0.10;0.10;;;;;;;9.91;66.32;99099.69;7366318;19;20083;-60
2024/03/10 01:32:00;;;;;;;0.10;0.10;;;;;;;9.91;66.60;99100.53;7358126;19;20017;-60
2024/03/10 01:34:25;;;;;;;0.20;0.20;;;;;;;9.92;66.53;99101.38;7363095;19;20002;-60
2024/03/10 01:36:50;;;;;;;0.10;0.10;;;;;;;9.91;66.55;99095.34;7360949;19;20006;-62
2024/03/10 01:39:16;;;;;;;0.10;0.10;;;;;;;9.91;66.80;99100.53;7363873;19;20045;-61
2024/03/10 01:41:42;;;;;;;0.15;0.15;;;;;;;9.91;66.49;99097.94;7366831;19;20588;-60
2024/03/10 01:44:07;;;;;;;0.10;0.10;;;;;;;9.84;66.67;99094.78;7362317;19;20041;-60
2024/03/10 01:46:36;;;;;;;0.10;0.10;;;;;;;9.92;66.92;99112.66;7367512;19;19998;-60
2024/03/10 01:49:03;;;;;;;0.10;0.10;;;;;;;9.93;66.67;99118.72;7367754;19;20018;-60
2024/03/10 01:51:29;;;;;;;0.05;0.05;;;;;;;9.93;66.52;99116.09;7352623;19;20725;-62
2024/03/10 01:53:56;;;;;;;0.10;0.10;;;;;;;9.88;66.38;99105.88;7366139;19;20041;-61
2024/03/10 01:56:22;;;;;;;0.10;0.10;;;;;;;9.91;66.79;99110.97;7361654;19;19995;-60
2024/03/10 01:58:48;;;;;;;0.10;0.10;;;;;;;9.90;66.70;99108.44;7363657;19;20007;-60
2024/03/10 02:01:15;;;;;;;0.10;0.10;;;;;;;9.90;66.62;99104.06;7364005;19;20002;-60
2024/03/10 02:03:43;;;;;;;0.10;0.10;;;;;;;9.88;66.66;99096.34;7366219;19;20375;-61
2024/03/10 02:06:09;;;;;;;0.10;0.10;;;;;;;9.89;66.96;99102.38;7362387;19;20022;-60
2024/03/10 02:08:36;;;;;;;0.10;0.10;;;;;;;9.78;66.95;99091.56;7364888;19;20002;-60
2024/03/10 02:11:03;;;;;;;0.10;0.10;;;;;;;9.86;67.00;99100.75;7363092;19;20017;-60
2024/03/10 02:13:28;;;;;;;0.10;0.10;;;;;;;9.87;66.66;99101.59;7366713;19;20011;-60
2024/03/10 02:16:02;;;;;;;0.10;0.10;;;;;;;9.77;66.59;99066.44;7363764;19;19994;-60
2024/03/10 02:18:28;;;;;;;0.10;0.10;;;;;;;9.88;67.08;99090.25;7366129;19;20559;-61
2024/03/10 02:20:55;;;;;;;0.10;0.10;;;;;;;9.86;67.17;99086.88;7366363;19;20062;-60
2024/03/10 02:23:23;;;;;;;0.10;0.10;;;;;;;9.90;66.77;99074.56;7366310;19;20037;-60
2024/03/10 02:25:50;;;;;;;0.10;0.10;;;;;;;9.85;67.00;99080.81;7365033;19;20017;-60
2024/03/10 02:28:24;;;;;;;0.10;0.10;;;;;;;9.85;67.02;99093.84;7366714;19;20607;-60
2024/03/10 02:30:57;;;;;;;0.10;0.10;;;;;;;9.89;66.99;99097.19;7364170;19;20003;-60
2024/03/10 02:47:14;;;;;;;0.10;0.10;;;;;;;9.87;67.29;99093.78;7365769;19;20056;-60
2024/03/10 02:49:40;;;;;;;0.17;0.17;;;;;;;9.87;67.33;99098.97;7367123;19;20336;-60
2024/03/10 02:52:06;;;;;;;0.10;0.10;;;;;;;9.74;67.09;99077.84;7362000;19;20006;-61
2024/03/10 02:54:32;;;;;;;0.10;0.10;;;;;;;9.87;67.22;99093.78;7365084;19;20003;-60
2024/03/10 02:56:57;;;;;;;0.10;0.10;;;;;;;9.87;67.02;99092.00;7361822;19;19998;-60
2024/03/10 02:59:24;;;;;;;0.10;0.10;;;;;;;9.87;66.95;99093.78;7362465;19;20015;-60
2024/03/10 03:01:50;;;;;;;0.10;0.10;;;;;;;9.87;67.42;99086.78;7365792;19;20082;-60
2024/03/10 03:04:16;;;;;;;0.10;0.10;;;;;;;9.86;67.19;99086.88;7365495;19;20766;-60
2024/03/10 03:06:41;;;;;;;0.10;0.10;;;;;;;9.87;67.27;99098.97;7366766;19;20587;-61
2024/03/10 03:09:08;;;;;;;0.10;0.10;;;;;;;9.86;67.17;99092.94;7366560;19;20006;-60
2024/03/10 03:11:33;;;;;;;0.10;0.10;;;;;;;9.87;67.48;99083.34;7365283;19;20006;-60
2024/03/10 03:14:01;;;;;;;0.10;0.10;;;;;;;9.87;67.17;99080.75;7371431;19;20048;-60
2024/03/10 03:16:28;;;;;;;0.15;0.15;;;;;;;9.87;67.09;99088.56;7368517;19;20686;-61
2024/03/10 03:18:53;;;;;;;0.10;0.10;;;;;;;9.85;67.14;99073.00;7373320;19;20022;-60
2024/03/10 03:21:18;;;;;;;0.10;0.10;;;;;;;9.88;67.06;99079.81;7372084;19;20533;-60
2024/03/10 03:23:44;;;;;;;0.10;0.10;;;;;;;9.87;67.43;99078.97;7373111;19;20006;-62
2024/03/10 03:26:09;;;;;;;0.10;0.10;;;;;;;9.86;67.17;99072.06;7370074;19;20332;-60
2024/03/10 03:28:35;;;;;;;0.10;0.10;;;;;;;9.87;67.24;99072.91;7371181;19;20028;-60
2024/03/10 03:31:00;;;;;;;0.10;0.10;;;;;;;9.84;67.30;99067.84;7374175;19;20021;-59
2024/03/10 03:33:25;;;;;;;0.10;0.10;;;;;;;9.86;67.02;99076.44;7366699;19;20010;-61
2024/03/10 03:35:51;;;;;;;0.10;0.10;;;;;;;9.86;67.48;99071.22;7371883;19;19994;-60
2024/03/10 03:38:17;;;;;;;0.10;0.10;;;;;;;9.85;67.01;99069.53;7370254;19;20392;-60
2024/03/10 03:40:42;;;;;;;0.10;0.10;;;;;;;9.75;67.04;99050.03;7370345;19;19999;-60
2024/03/10 03:43:08;;;;;;;0.05;0.05;;;;;;;9.84;67.16;99070.47;7368984;19;20012;-60
2024/03/10 03:45:33;;;;;;;0.10;0.10;;;;;;;9.85;67.59;99074.75;7368563;19;20015;-60
2024/03/10 03:47:59;;;;;;;0.10;0.10;;;;;;;9.85;67.20;99075.59;7372216;19;20019;-60
2024/03/10 03:50:26;;;;;;;0.10;0.10;;;;;;;9.85;67.59;99072.16;7374020;19;20014;-61
2024/03/10 03:52:51;;;;;;;0.10;0.10;;;;;;;9.85;67.35;99072.16;7367129;19;20844;-62
2024/03/10 03:55:18;;;;;;;0.10;0.10;;;;;;;9.84;67.58;99073.06;7370667;19;20002;-60
2024/03/10 03:57:45;;;;;;;0.10;0.10;;;;;;;9.84;67.27;99073.06;7368557;19;19998;-60
2024/03/10 04:00:12;;;;;;;0.10;0.10;;;;;;;9.83;67.72;99073.97;7374321;19;20006;-60
2024/03/10 04:02:38;;;;;;;0.10;0.10;;;;;;;9.83;67.69;99076.56;7366089;19;20011;-60
2024/03/10 04:05:07;;;;;;;0.10;0.10;;;;;;;9.70;67.46;99054.59;7373037;19;20498;-61
2024/03/10 04:07:32;;;;;;;0.10;0.10;;;;;;;9.82;67.61;99077.50;7369770;19;20018;-60
2024/03/10 04:09:58;;;;;;;0.10;0.10;;;;;;;9.82;67.81;99080.94;7373256;19;20010;-62
2024/03/10 04:12:23;;;;;;;0.10;0.10;;;;;;;9.79;67.66;99072.44;7373221;19;20407;-60
2024/03/10 04:14:49;;;;;;;0.10;0.10;;;;;;;9.82;67.81;99078.34;7371138;19;20027;-60
2024/03/10 04:17:14;;;;;;;0.10;0.10;;;;;;;9.78;67.88;99068.13;7345256;19;20016;-61
2024/03/10 04:19:39;;;;;;;0.10;0.10;;;;;;;9.82;67.86;99086.16;7369844;19;20017;-60
2024/03/10 04:22:09;;;;;;;0.00;0.00;;;;;;;9.79;68.18;99081.09;7367588;19;20461;-60
2024/03/10 04:24:36;;;;;;;0.10;0.10;;;;;;;9.81;67.91;99083.63;7362890;19;20514;-60
2024/03/10 04:27:01;;;;;;;0.10;0.10;;;;;;;9.80;67.83;99081.94;7370035;19;20544;-60
2024/03/10 04:29:27;;;;;;;0.10;0.10;;;;;;;9.80;67.83;99081.94;7368267;19;20002;-60
2024/03/10 04:31:52;;;;;;;0.10;0.10;;;;;;;9.78;68.28;99083.75;7363934;19;20019;-61
2024/03/10 04:34:18;;;;;;;0.10;0.10;;;;;;;9.78;67.96;99084.63;7364837;19;20010;-61
2024/03/10 04:36:43;;;;;;;0.10;0.10;;;;;;;9.79;68.39;99081.09;7362497;19;20109;-60
2024/03/10 04:39:12;;;;;;;0.10;0.10;;;;;;;9.79;68.36;99077.66;7368688;19;20007;-60
2024/03/10 04:41:37;;;;;;;0.10;0.10;;;;;;;9.79;68.11;99080.25;7367752;19;20010;-60
2024/03/10 04:44:03;;;;;;;0.10;0.10;;;;;;;9.79;68.44;99080.25;7367242;19;20006;-60
2024/03/10 04:46:29;;;;;;;0.10;0.10;;;;;;;9.79;67.99;99080.25;7367943;19;20126;-60
2024/03/10 04:48:57;;;;;;;0.10;0.10;;;;;;;9.78;68.25;99081.16;7369279;19;20733;-60
2024/03/10 04:51:26;;;;;;;0.10;0.10;;;;;;;9.78;68.11;99079.41;7362025;19;20022;-60
2024/03/10 04:53:52;;;;;;;0.10;0.10;;;;;;;9.62;68.53;99058.38;7367973;19;20009;-60
2024/03/10 04:56:17;;;;;;;0.10;0.10;;;;;;;9.78;68.04;99078.53;7364892;19;20006;-60
2024/03/10 04:58:43;;;;;;;0.10;0.10;;;;;;;9.78;68.51;99088.97;7366826;19;20074;-60
2024/03/10 05:01:10;;;;;;;0.10;0.10;;;;;;;9.79;68.10;99085.47;7362864;19;20538;-60
2024/03/10 05:03:39;;;;;;;0.00;0.00;;;;;;;9.79;68.02;99086.31;7353396;19;20003;-60
2024/03/10 05:06:05;;;;;;;0.10;0.10;;;;;;;9.77;68.16;99092.50;7366193;19;20537;-60
2024/03/10 05:08:31;;;;;;;0.10;0.10;;;;;;;9.76;68.28;99088.19;7367957;19;20023;-60
2024/03/10 05:10:56;;;;;;;0.10;0.10;;;;;;;9.76;68.26;99085.59;7366100;19;20011;-60
2024/03/10 05:13:22;;;;;;;0.00;0.00;;;;;;;9.76;68.71;99088.19;7367682;19;20003;-60
2024/03/10 05:15:48;;;;;;;0.10;0.10;;;;;;;9.75;68.57;99083.91;7365452;19;20018;-60
2024/03/10 05:18:14;;;;;;;0.10;0.10;;;;;;;9.70;68.79;99080.66;7363686;19;20018;-61
2024/03/10 05:20:40;;;;;;;0.10;0.10;;;;;;;9.67;68.52;99080.78;7368001;19;20103;-60
2024/03/10 05:23:05;;;;;;;0.00;0.00;;;;;;;9.71;68.66;99082.34;7362035;19;20070;-60
2024/03/10 05:25:31;;;;;;;0.10;0.10;;;;;;;9.70;68.96;99085.88;7367877;19;20561;-60
2024/03/10 05:27:57;;;;;;;0.10;0.10;;;;;;;9.69;68.91;99089.41;7365766;19;20009;-60
2024/03/10 05:30:22;;;;;;;0.10;0.10;;;;;;;9.51;69.02;99063.25;7363229;19;20754;-60
2024/03/10 05:32:49;;;;;;;0.10;0.10;;;;;;;9.68;68.87;99092.91;7365179;19;20014;-62
2024/03/10 05:35:14;;;;;;;0.10;0.10;;;;;;;9.68;68.88;99092.91;7367504;19;20376;-60
2024/03/10 05:37:41;;;;;;;0.10;0.10;;;;;;;9.67;68.79;99088.59;7363081;19;20449;-60
2024/03/10 05:40:08;;;;;;;0.10;0.10;;;;;;;9.68;68.95;99093.78;7364180;19;20109;-60
2024/03/10 05:42:33;;;;;;;0.10;0.10;;;;;;;9.68;69.18;99092.91;7363309;19;20573;-60
2024/03/10 05:45:02;;;;;;;0.10;0.10;;;;;;;9.56;68.89;99073.47;7363167;19;20006;-60
2024/03/10 05:47:28;;;;;;;0.10;0.10;;;;;;;9.55;69.04;99070.00;7362150;19;20026;-60
2024/03/10 05:49:57;;;;;;;0.10;0.10;;;;;;;9.69;68.85;99094.63;7366164;19;20084;-60
2024/03/10 05:52:23;;;;;;;0.10;0.10;;;;;;;9.67;69.11;99086.00;7361505;19;20042;-60
2024/03/10 05:54:48;;;;;;;0.10;0.10;;;;;;;9.67;69.44;99096.44;7366343;19;20002;-61
2024/03/10 05:57:14;;;;;;;0.10;0.10;;;;;;;9.65;69.26;99088.69;7366674;19;19999;-60
2024/03/10 05:59:43;;;;;;;0.10;0.10;;;;;;;9.68;69.38;99087.69;7365845;19;19999;-60
2024/03/10 06:02:09;;;;;;;0.10;0.10;;;;;;;9.66;69.27;99085.16;7366838;19;20024;-60
2024/03/10 06:04:34;;;;;;;0.10;0.10;;;;;;;9.65;69.36;99082.63;7357012;19;20561;-61
2024/03/10 06:07:00;;;;;;;0.10;0.10;;;;;;;9.67;69.16;99086.00;7365948;19;20026;-60
2024/03/10 06:09:27;;;;;;;0.10;0.10;;;;;;;9.67;69.50;99091.22;7361378;19;20364;-60
2024/03/10 06:11:53;;;;;;;0.10;0.10;;;;;;;9.68;69.45;99092.91;7364890;19;20387;-61
2024/03/10 06:14:18;;;;;;;0.10;0.10;;;;;;;9.67;69.39;99086.84;7364043;19;20011;-60
2024/03/10 06:16:43;;;;;;;0.00;0.00;;;;;;;9.67;69.18;99088.59;7365651;19;20004;-60
2024/03/10 06:27:20;;;;;;;0.10;0.10;;;;;;;9.66;69.21;99089.53;7362098;19;20377;-60
2024/03/10 06:29:46;;;;;;;0.10;0.10;;;;;;;9.65;69.53;99086.09;7363133;19;19994;-60
2024/03/10 06:32:13;;;;;;;0.10;0.10;;;;;;;9.65;69.50;99087.84;7360995;19;20014;-60
2024/03/10 06:34:39;;;;;;;0.10;0.10;;;;;;;9.65;69.51;99087.84;7365906;19;20074;-60
2024/03/10 06:37:04;;;;;;;0.10;0.10;;;;;;;9.64;69.61;99092.22;7355989;19;20386;-61
2024/03/10 06:39:31;;;;;;;0.10;0.10;;;;;;;9.64;69.31;99091.38;7366231;19;20025;-60
2024/03/10 06:41:56;;;;;;;0.00;0.00;;;;;;;9.64;69.84;99088.78;7357679;19;20014;-60
2024/03/10 06:44:22;;;;;;;0.10;0.10;;;;;;;9.63;69.76;99093.13;7363675;19;20643;-60
2024/03/10 06:46:47;;;;;;;0.08;0.08;;;;;;;9.62;69.30;99089.66;7364583;19;19999;-61
2024/03/10 06:49:14;;;;;;;0.10;0.10;;;;;;;9.65;69.57;99093.06;7363996;19;19995;-60
2024/03/10 06:51:39;;;;;;;0.10;0.10;;;;;;;9.64;69.92;99091.38;7365301;19;20470;-59
2024/03/10 06:54:05;;;;;;;0.10;0.10;;;;;;;9.64;69.47;99099.19;7361795;19;20027;-60
2024/03/10 06:56:30;;;;;;;0.10;0.10;;;;;;;9.65;69.53;99100.88;7362632;19;20014;-60
2024/03/10 06:58:56;;;;;;;0.10;0.10;;;;;;;9.66;69.90;99099.97;7361144;19;20014;-60
2024/03/10 07:01:21;;;;;;;0.10;0.10;;;;;;;9.65;69.58;99098.28;7364868;19;20017;-61
2024/03/10 07:03:48;;;;;;;0.10;0.10;;;;;;;9.64;69.84;99100.03;7364135;19;20032;-60
2024/03/10 07:06:15;;;;;;;0.10;0.10;;;;;;;9.65;69.76;99103.47;7362938;19;20782;-61
2024/03/10 07:08:42;;;;;;;0.10;0.10;;;;;;;9.66;69.84;99102.56;7367962;19;20735;-60
2024/03/10 07:11:08;;;;;;;0.00;0.00;;;;;;;9.66;69.54;99099.97;7365049;19;20040;-61
2024/03/10 07:13:33;;;;;;;0.10;0.10;;;;;;;9.65;69.57;99108.69;7363983;19;20014;-61
2024/03/10 07:15:59;;;;;;;0.10;0.10;;;;;;;9.66;69.79;99107.78;7367388;19;20040;-60
2024/03/10 07:18:24;;;;;;;0.10;0.10;;;;;;;9.67;69.84;99106.84;7361209;19;20116;-60
2024/03/10 07:20:50;;;;;;;0.10;0.10;;;;;;;9.67;69.54;99110.31;7364432;19;20002;-61
2024/03/10 07:23:15;;;;;;;0.13;0.13;;;;;;;9.61;69.63;99101.00;7362771;19;20002;-60
2024/03/10 07:25:40;;;;;;;0.10;0.10;;;;;;;9.67;69.66;99112.91;7363749;19;20010;-60
2024/03/10 07:28:06;;;;;;;0.10;0.10;;;;;;;9.66;69.64;99110.38;7365893;19;20010;-60
2024/03/10 07:30:34;;;;;;;0.00;0.00;;;;;;;9.68;69.62;99112.03;7363508;19;20716;-60
2024/03/10 07:32:59;;;;;;;0.10;0.10;;;;;;;9.68;69.64;99114.63;7364330;19;20445;-60
2024/03/10 07:35:25;;;;;;;0.10;0.10;;;;;;;9.68;70.00;99108.53;7363485;19;20002;-60
2024/03/10 07:37:50;;;;;;;0.10;0.10;;;;;;;9.68;69.76;99116.34;7364870;19;20006;-60
2024/03/10 07:40:17;;;;;;;0.10;0.10;;;;;;;9.69;70.14;99112.88;7358561;19;19995;-61
2024/03/10 07:42:46;;;;;;;0.10;0.10;;;;;;;9.70;69.62;99120.59;7361451;19;20009;-60
2024/03/10 07:45:12;;;;;;;0.10;0.10;;;;;;;9.69;69.66;99120.69;7364593;19;20680;-60
2024/03/10 07:47:42;;;;;;;0.10;0.10;;;;;;;9.70;69.56;99114.56;7363590;19;20001;-60
2024/03/10 07:50:12;;;;;;;0.10;0.10;;;;;;;9.71;69.67;99134.47;7364872;19;20506;-60
2024/03/10 07:52:39;;;;;;;0.10;0.10;;;;;;;9.71;69.69;99130.13;7362128;19;20038;-60
2024/03/10 07:55:05;;;;;;;0.10;0.10;;;;;;;9.64;69.84;99123.50;7365692;19;19998;-60
2024/03/10 07:57:34;;;;;;;0.08;0.08;;;;;;;9.57;69.91;99102.03;7363529;19;19995;-60
2024/03/10 08:00:05;;;;;;;0.10;0.10;;;;;;;9.68;69.91;99129.41;7368207;19;20522;-60
2024/03/10 08:02:31;;;;;;;0.10;0.10;;;;;;;9.69;70.38;99133.72;7369548;19;20011;-61
2024/03/10 08:04:57;;;;;;;0.10;0.10;;;;;;;9.68;70.01;99125.06;7368749;19;20003;-62
2024/03/10 08:07:22;;;;;;;0.10;0.10;;;;;;;9.49;69.87;99093.75;7371895;19;20003;-60
2024/03/10 08:09:48;;;;;;;0.13;0.13;;;;;;;9.70;70.38;99122.38;7371043;19;19991;-61
2024/03/10 08:12:13;;;;;;;0.10;0.10;;;;;;;9.60;70.26;99112.34;7367260;19;20375;-60
2024/03/10 08:14:39;;;;;;;0.10;0.10;;;;;;;9.69;70.39;99141.53;7370975;19;20009;-60
2024/03/10 08:17:05;;;;;;;0.10;0.10;;;;;;;9.68;70.08;99140.69;7370068;19;20461;-59
2024/03/10 08:19:30;;;;;;;0.10;0.10;;;;;;;9.70;70.44;99136.25;7364366;19;19999;-61
2024/03/10 08:21:56;;;;;;;0.10;0.10;;;;;;;9.70;70.56;99140.63;7366335;19;19995;-61
2024/03/10 08:24:23;;;;;;;0.10;0.10;;;;;;;9.57;70.30;99109.03;7368407;19;20491;-60
2024/03/10 08:26:48;;;;;;;0.10;0.10;;;;;;;9.69;70.69;99136.31;7369849;19;20567;-62
2024/03/10 08:29:14;;;;;;;0.10;0.10;;;;;;;9.72;70.52;99133.56;7370356;19;20467;-61
2024/03/10 08:31:41;;;;;;;0.10;0.10;;;;;;;9.61;70.59;99124.47;7365421;19;20741;-61
2024/03/10 08:34:06;;;;;;;0.00;0.00;;;;;;;9.73;70.62;99135.25;7368803;19;20344;-60
2024/03/10 08:36:33;;;;;;;0.10;0.10;;;;;;;9.73;70.43;99141.34;7368988;19;20003;-60
2024/03/10 08:38:58;;;;;;;0.10;0.10;;;;;;;9.69;70.65;99131.13;7368536;19;20006;-61
2024/03/10 08:41:24;;;;;;;0.10;0.10;;;;;;;9.75;70.51;99141.25;7365493;19;19998;-60
2024/03/10 08:43:50;;;;;;;0.10;0.10;;;;;;;9.76;70.35;99140.34;7367592;19;20003;-61
2024/03/10 08:46:15;;;;;;;0.05;0.05;;;;;;;9.77;70.79;99134.19;7370678;19;20481;-61
2024/03/10 08:48:41;;;;;;;0.10;0.10;;;;;;;9.77;70.50;99139.41;7371706;19;20009;-60
2024/03/10 08:51:06;;;;;;;0.10;0.10;;;;;;;9.77;70.91;99144.63;7371154;19;20010;-61
2024/03/10 08:53:32;;;;;;;0.00;0.00;;;;;;;9.77;70.49;99147.25;7370933;19;20017;-60
2024/03/10 08:55:57;;;;;;;0.10;0.10;;;;;;;9.79;70.84;99150.66;7372155;19;20007;-60
2024/03/10 08:58:23;;;;;;;0.10;0.10;;;;;;;9.79;70.51;99168.88;7367892;19;20011;-60
2024/03/10 09:00:49;;;;;;;0.10;0.10;;;;;;;9.80;70.94;99160.16;7360493;19;20467;-61
2024/03/10 09:03:15;;;;;;;0.10;0.10;;;;;;;9.79;70.85;99159.31;7364728;19;20074;-60
2024/03/10 09:05:40;;;;;;;0.10;0.10;;;;;;;9.81;70.84;99159.22;7367724;19;20450;-60
2024/03/10 09:08:06;;;;;;;0.10;0.10;;;;;;;9.83;70.74;99165.22;7368437;19;20014;-60
2024/03/10 09:10:31;;;;;;;0.10;0.10;;;;;;;9.81;70.99;99161.84;7367988;19;20009;-60
2024/03/10 09:12:56;;;;;;;0.10;0.10;;;;;;;9.82;71.03;99164.38;7370753;19;20631;-60
2024/03/10 09:15:22;;;;;;;0.10;0.10;;;;;;;9.84;71.17;99164.31;7363465;19;20081;-60
2024/03/10 09:17:47;;;;;;;0.10;0.10;;;;;;;9.83;70.91;99155.66;7367779;19;20010;-60
2024/03/10 09:20:13;;;;;;;0.10;0.10;;;;;;;9.84;70.90;99167.78;7365894;19;20106;-61
2024/03/10 09:22:43;;;;;;;0.10;0.10;;;;;;;9.86;70.82;99157.25;7366106;19;20007;-61
2024/03/10 09:25:21;;;;;;;0.10;0.10;;;;;;;9.84;71.21;99172.13;7363446;19;20040;-60
2024/03/10 09:27:56;;;;;;;0.10;0.10;;;;;;;9.88;70.42;99165.84;7369351;19;20009;-60
2024/03/10 09:30:22;;;;;;;0.10;0.10;;;;;;;9.85;71.18;99169.47;7357999;19;20454;-60
2024/03/10 09:32:54;;;;;;;0.10;0.10;;;;;;;9.84;70.71;99172.13;7366857;19;20019;-61
2024/03/10 09:35:35;;;;;;;0.10;0.10;;;;;;;9.86;70.80;99172.91;7362799;19;20825;-60
2024/03/10 09:38:04;;;;;;;0.10;0.10;;;;;;;9.85;71.04;99163.41;7368192;19;20007;-60
2024/03/10 09:40:30;;;;;;;0.10;0.10;;;;;;;9.86;71.01;99180.72;7363903;19;20007;-60
2024/03/10 09:43:04;;;;;;;0.00;0.00;;;;;;;9.88;71.35;99171.94;7365902;19;19999;-60
2024/03/10 09:45:37;;;;;;;0.10;0.10;;;;;;;9.90;71.01;99169.25;7363299;19;20005;-60
2024/03/10 09:48:04;;;;;;;0.10;0.10;;;;;;;9.87;71.20;99172.84;7366153;19;20034;-60
2024/03/10 09:50:31;;;;;;;0.10;0.10;;;;;;;9.88;71.66;99168.47;7366111;19;20459;-61
2024/03/10 09:52:58;;;;;;;0.10;0.10;;;;;;;9.87;71.49;99175.44;7366941;19;20015;-60
2024/03/10 09:55:24;;;;;;;0.10;0.10;;;;;;;9.87;71.08;99167.63;7368591;19;20912;-60
2024/03/10 09:57:54;;;;;;;0.10;0.10;;;;;;;9.91;71.23;99165.72;7367530;19;20066;-60
2024/03/10 10:00:24;;;;;;;0.10;0.10;;;;;;;9.93;71.50;99165.66;7367252;19;20005;-60
2024/03/10 10:02:54;;;;;;;0.10;0.10;;;;;;;9.92;71.14;99167.41;7366641;19;20014;-60
2024/03/10 10:05:25;;;;;;;0.00;0.00;;;;;;;9.92;71.36;99170.03;7366960;19;20098;-60
2024/03/10 10:07:53;;;;;;;0.10;0.10;;;;;;;9.93;71.52;99160.44;7365780;19;20002;-61
2024/03/10 10:10:21;;;;;;;0.15;0.15;;;;;;;9.92;71.54;99170.03;7366278;19;20074;-61
2024/03/10 10:12:49;;;;;;;0.10;0.10;;;;;;;9.92;71.34;99171.78;7364168;19;20023;-60
2024/03/10 10:15:19;;;;;;;0.20;0.20;;;;;;;9.89;71.17;99167.56;7368305;19;20009;-60
2024/03/10 10:18:03;;;;;;;0.10;0.10;;;;;;;9.98;70.92;99171.50;7363942;19;20466;-60
2024/03/10 10:20:28;;;;;;;0.10;0.10;;;;;;;9.95;71.41;99172.50;7364603;19;20002;-60
2024/03/10 10:23:04;;;;;;;0.10;0.10;;;;;;;9.98;71.51;99168.91;7363618;19;20020;-60
2024/03/10 10:25:31;;;;;;;0.10;0.10;;;;;;;9.95;71.63;99163.84;7366503;19;20003;-60
2024/03/10 10:27:57;;;;;;;0.10;0.10;;;;;;;9.98;71.15;99169.75;7366946;19;20486;-61
2024/03/10 10:30:28;;;;;;;0.10;0.10;;;;;;;10.02;71.07;99160.88;7364591;19;20077;-60
2024/03/10 10:33:08;;;;;;;0.10;0.10;;;;;;;10.04;71.12;99174.72;7364842;19;20015;-60
2024/03/10 10:35:38;;;;;;;0.10;0.10;;;;;;;10.01;71.61;99167.00;7363383;19;20011;-60
2024/03/10 10:38:11;;;;;;;0.10;0.10;;;;;;;10.02;71.52;99179.13;7364635;19;20715;-60
2024/03/10 10:40:51;;;;;;;0.10;0.10;;;;;;;10.07;70.92;99177.16;7365198;19;20011;-60
2024/03/10 10:43:17;;;;;;;0.10;0.10;;;;;;;10.04;71.25;99177.31;7363663;19;20018;-60
2024/03/10 10:45:43;;;;;;;0.10;0.10;;;;;;;9.93;71.47;99153.47;7366839;19;20044;-60
2024/03/10 10:48:10;;;;;;;0.10;0.10;;;;;;;10.06;71.42;99175.47;7366255;19;20888;-60
2024/03/10 10:50:37;;;;;;;0.10;0.10;;;;;;;10.07;71.44;99179.78;7365897;19;20014;-63
2024/03/10 10:53:06;;;;;;;0.10;0.10;;;;;;;10.08;71.11;99181.44;7362957;19;21339;-60
2024/03/10 10:55:32;;;;;;;0.10;0.10;;;;;;;10.09;71.46;99188.38;7366252;19;20002;-60
2024/03/10 10:58:21;;;;;;;0.10;0.10;;;;;;;10.13;70.70;99174.28;7364363;19;20367;-60
2024/03/10 11:00:53;;;;;;;0.10;0.10;;;;;;;10.11;71.29;99181.31;7365474;19;20044;-61
2024/03/10 11:03:28;;;;;;;0.10;0.10;;;;;;;10.10;71.14;99174.44;7361065;19;20003;-60
2024/03/10 11:06:03;;;;;;;0.10;0.10;;;;;;;10.16;70.85;99177.66;7364420;19;20489;-61
2024/03/10 11:08:36;;;;;;;0.10;0.10;;;;;;;10.16;71.10;99173.28;7364793;19;20684;-60
2024/03/10 11:11:05;;;;;;;0.10;0.10;;;;;;;10.13;71.32;99176.88;7365277;19;20011;-60
2024/03/10 11:13:32;;;;;;;0.10;0.10;;;;;;;10.13;71.60;99171.66;7366272;19;20104;-60
2024/03/10 11:16:09;;;;;;;0.10;0.10;;;;;;;10.17;70.94;99174.16;7363725;19;20077;-60
2024/03/10 11:18:37;;;;;;;0.10;0.10;;;;;;;10.13;71.48;99174.28;7362832;19;20124;-60
2024/03/10 11:21:06;;;;;;;0.10;0.10;;;;;;;10.19;71.12;99172.28;7365742;19;20020;-60
2024/03/10 11:23:36;;;;;;;0.13;0.13;;;;;;;10.20;70.99;99168.81;7361807;19;20003;-60
2024/03/10 11:26:12;;;;;;;0.10;0.10;;;;;;;10.19;71.37;99170.56;7365960;19;20020;-60
2024/03/10 11:28:54;;;;;;;0.13;0.13;;;;;;;10.24;70.98;99170.34;7363267;19;20003;-60
2024/03/10 11:31:22;;;;;;;0.10;0.10;;;;;;;10.25;71.27;99172.91;7364536;19;20059;-61
2024/03/10 11:34:03;;;;;;;0.10;0.10;;;;;;;10.27;71.31;99172.84;7360924;19;20336;-60
2024/03/10 11:36:36;;;;;;;0.10;0.10;;;;;;;10.30;71.06;99176.16;7368974;19;19999;-60
2024/03/10 11:39:02;;;;;;;0.10;0.10;;;;;;;10.29;71.58;99176.22;7373321;19;19998;-60
2024/03/10 11:41:28;;;;;;;0.10;0.10;;;;;;;10.32;71.76;99173.47;7369892;19;20343;-60
2024/03/10 11:43:54;;;;;;;0.10;0.10;;;;;;;10.31;71.77;99172.63;7367716;19;19999;-60
2024/03/10 11:46:31;;;;;;;0.10;0.10;;;;;;;10.38;71.14;99176.63;7371871;19;20455;-61
2024/03/10 11:48:57;;;;;;;0.10;0.10;;;;;;;10.29;71.42;99153.59;7371427;19;20022;-60
2024/03/10 11:51:31;;;;;;;0.10;0.10;;;;;;;10.43;71.11;99171.22;7372497;19;20597;-60
2024/03/10 11:53:57;;;;;;;0.10;0.10;;;;;;;10.40;71.36;99171.38;7369585;19;20459;-60
2024/03/10 11:56:24;;;;;;;0.10;0.10;;;;;;;10.45;71.41;99172.00;7371399;19;20035;-61
2024/03/10 11:58:57;;;;;;;0.10;0.10;;;;;;;10.42;71.39;99158.25;7370987;19;20002;-61
2024/03/10 12:01:26;;;;;;;0.10;0.10;;;;;;;10.39;71.50;99154.00;7372937;19;20547;-60
2024/03/10 12:03:53;;;;;;;0.10;0.10;;;;;;;10.51;71.24;99178.69;7362989;19;21923;-59